createdAt,value
2023-03-22T00:00:28.739Z,15.83
2023-03-22T00:03:12.922Z,16.43
2023-03-22T00:06:02.492Z,16.47
2023-03-22T00:08:55.151Z,17.73
2023-03-22T00:11:42.317Z,15.73
2023-03-22T00:14:31.084Z,16.87
2023-03-22T00:17:14.541Z,17.03
2023-03-22T00:20:02.769Z,15.37
2023-03-22T00:22:53.546Z,15.03
2023-03-22T00:25:42.075Z,15.40
2023-03-22T00:28:30.401Z,15.07
2023-03-22T00:31:18.790Z,13.77
2023-03-22T00:34:04.173Z,14.33
2023-03-22T00:36:51.319Z,14.10
2023-03-22T00:39:38.709Z,13.87
2023-03-22T00:42:28.001Z,13.27
2023-03-22T00:45:15.479Z,14.30
2023-03-22T00:48:05.551Z,13.50
2023-03-22T00:50:53.173Z,14.23
2023-03-22T00:53:42.416Z,14.00
2023-03-22T00:56:30.701Z,13.37
2023-03-22T00:59:17.599Z,12.87
2023-03-22T01:02:04.885Z,13.50
2023-03-22T01:04:52.320Z,12.43
2023-03-22T01:07:39.977Z,12.90
2023-03-22T01:10:28.380Z,12.43
2023-03-22T01:13:13.275Z,12.77
2023-03-22T01:16:00.683Z,12.93
2023-03-22T01:18:46.889Z,12.83
2023-03-22T01:21:32.206Z,12.63
2023-03-22T01:24:17.394Z,12.53
2023-03-22T01:27:03.667Z,12.53
2023-03-22T01:29:51.332Z,13.27
2023-03-22T01:32:37.939Z,13.40
2023-03-22T01:35:23.975Z,13.27
2023-03-22T01:38:12.398Z,13.77
2023-03-22T01:41:03.781Z,13.37
2023-03-22T01:44:11.670Z,12.80
2023-03-22T01:46:59.561Z,13.73
2023-03-22T01:49:48.237Z,14.60
2023-03-22T01:52:34.215Z,14.70
2023-03-22T01:55:25.782Z,15.43
2023-03-22T01:58:11.437Z,15.13
2023-03-22T02:00:58.626Z,14.77
2023-03-22T02:03:53.542Z,15.80
2023-03-22T02:06:41.302Z,14.27
2023-03-22T02:09:27.493Z,14.43
2023-03-22T02:12:28.340Z,13.83
2023-03-22T02:15:20.453Z,14.53
2023-03-22T02:18:20.862Z,15.77
2023-03-22T02:21:44.949Z,15.67
2023-03-22T02:25:08.769Z,15.37
2023-03-22T02:28:13.257Z,16.10
2023-03-22T02:31:19.346Z,16.20
2023-03-22T02:34:40.423Z,16.50
2023-03-22T02:37:47.403Z,15.07
2023-03-22T02:40:41.619Z,14.67
2023-03-22T02:43:39.420Z,15.60
2023-03-22T02:46:29.789Z,14.87
2023-03-22T02:49:22.729Z,15.17
2023-03-22T02:52:18.952Z,15.00
2023-03-22T02:55:10.938Z,14.57
2023-03-22T02:58:09.119Z,15.13
2023-03-22T03:00:56.664Z,14.63
2023-03-22T03:03:49.425Z,14.60
2023-03-22T03:06:39.844Z,14.27
2023-03-22T03:09:25.564Z,13.70
2023-03-22T03:12:16.461Z,14.83
2023-03-22T03:15:01.372Z,14.77
2023-03-22T03:18:05.874Z,13.47
2023-03-22T03:21:02.581Z,12.17
2023-03-22T03:23:58.565Z,12.13
2023-03-22T03:26:54.108Z,13.17
2023-03-22T03:29:46.059Z,11.93
2023-03-22T03:32:39.938Z,12.50
2023-03-22T03:35:29.123Z,11.37
2023-03-22T03:38:20.208Z,11.47
2023-03-22T03:41:10.594Z,11.17
2023-03-22T03:44:00.198Z,11.53
2023-03-22T03:46:46.076Z,10.80
2023-03-22T03:49:35.632Z,11.00
2023-03-22T03:52:26.129Z,10.50
2023-03-22T03:55:14.671Z,10.43
2023-03-22T03:58:01.501Z,10.37
2023-03-22T04:00:53.117Z,10.67
2023-03-22T04:03:41.472Z,9.97
2023-03-22T04:06:35.297Z,10.17
2023-03-22T04:09:22.934Z,10.73
2023-03-22T04:12:10.579Z,9.47
2023-03-22T04:14:56.248Z,10.53
2023-03-22T04:17:39.859Z,9.60
2023-03-22T04:20:24.024Z,10.27
2023-03-22T04:23:16.149Z,10.73
2023-03-22T04:26:03.174Z,10.13
2023-03-22T04:28:50.057Z,10.30
2023-03-22T04:31:39.181Z,10.43
2023-03-22T04:34:25.793Z,10.10
2023-03-22T04:37:13.872Z,10.37
2023-03-22T04:40:03.440Z,9.30
2023-03-22T04:42:49.806Z,9.27
2023-03-22T04:45:37.133Z,10.20
2023-03-22T04:48:23.184Z,9.67
2023-03-22T04:51:09.020Z,10.27
2023-03-22T04:53:56.781Z,9.87
2023-03-22T04:56:45.287Z,10.50
2023-03-22T04:59:30.475Z,10.13
2023-03-22T05:02:17.072Z,10.23
2023-03-22T05:05:01.526Z,10.07
2023-03-22T05:07:45.246Z,11.10
2023-03-22T05:10:28.859Z,10.47
2023-03-22T05:13:13.506Z,10.77
2023-03-22T05:16:01.083Z,11.80
2023-03-22T05:18:48.797Z,10.47
2023-03-22T05:21:37.886Z,11.10
2023-03-22T05:24:24.311Z,10.63
2023-03-22T05:27:12.204Z,11.27
2023-03-22T05:30:01.270Z,10.67
2023-03-22T05:32:54.535Z,11.73
2023-03-22T05:35:43.386Z,10.50
2023-03-22T05:38:29.669Z,10.90
2023-03-22T05:41:17.315Z,11.27
2023-03-22T05:44:05.061Z,11.10
2023-03-22T05:46:52.900Z,11.07
2023-03-22T05:49:44.537Z,12.00
2023-03-22T05:52:31.368Z,11.70
2023-03-22T05:55:21.426Z,10.63
2023-03-22T05:58:06.715Z,10.90
2023-03-22T06:00:53.807Z,12.17
2023-03-22T06:03:40.719Z,11.97
2023-03-22T06:06:29.259Z,11.33
2023-03-22T06:09:17.936Z,12.00
2023-03-22T06:12:03.898Z,10.53
2023-03-22T06:14:50.970Z,10.87
2023-03-22T06:17:38.987Z,11.03
2023-03-22T06:20:28.227Z,11.40
2023-03-22T06:23:15.703Z,10.43
2023-03-22T06:25:58.989Z,10.77
2023-03-22T06:28:46.050Z,11.43
2023-03-22T06:31:29.896Z,11.90
2023-03-22T06:34:17.259Z,12.87
2023-03-22T06:37:04.792Z,14.43
2023-03-22T06:39:50.198Z,13.97
2023-03-22T06:42:38.409Z,13.03
2023-03-22T06:45:26.945Z,14.13
2023-03-22T06:48:14.146Z,14.03
2023-03-22T06:51:00.104Z,13.43
2023-03-22T06:53:47.117Z,13.73
2023-03-22T06:56:32.463Z,13.17
2023-03-22T06:59:16.816Z,14.43
2023-03-22T07:02:02.576Z,13.40
2023-03-22T07:04:49.399Z,13.10
2023-03-22T07:07:34.697Z,12.97
2023-03-22T07:10:20.872Z,13.57
2023-03-22T07:13:06.132Z,11.90
2023-03-22T07:15:57.384Z,12.00
2023-03-22T07:18:45.170Z,11.40
2023-03-22T07:21:34.485Z,10.80
2023-03-22T07:24:24.626Z,10.73
2023-03-22T07:27:20.451Z,10.03
2023-03-22T07:30:16.968Z,10.40
2023-03-22T07:33:13.210Z,10.07
2023-03-22T07:36:03.940Z,9.40
2023-03-22T07:38:56.632Z,9.93
2023-03-22T07:41:46.865Z,10.60
2023-03-22T07:44:40.998Z,9.73
2023-03-22T07:47:40.441Z,9.77
2023-03-22T07:50:32.719Z,10.27
2023-03-22T07:53:29.372Z,10.60
2023-03-22T07:56:20.715Z,10.90
2023-03-22T07:59:11.664Z,10.60
2023-03-22T08:02:18.458Z,11.57
2023-03-22T08:05:08.895Z,11.30
2023-03-22T08:07:58.928Z,12.03
2023-03-22T08:10:56.450Z,11.50
2023-03-22T08:13:48.350Z,11.27
2023-03-22T08:16:33.887Z,10.60
2023-03-22T08:19:21.395Z,12.97
2023-03-22T08:22:07.950Z,12.13
2023-03-22T08:24:53.964Z,11.33
2023-03-22T08:27:37.977Z,11.37
2023-03-22T08:30:25.146Z,12.57
2023-03-22T08:33:19.805Z,12.77
2023-03-22T08:36:16.454Z,12.97
2023-03-22T08:39:05.854Z,12.80
2023-03-22T08:41:56.673Z,13.30
2023-03-22T08:44:44.198Z,12.57
2023-03-22T08:47:36.712Z,12.07
2023-03-22T08:50:29.125Z,12.37
2023-03-22T08:53:21.405Z,13.17
2023-03-22T08:56:22.946Z,12.40
2023-03-22T08:59:16.820Z,11.80
2023-03-22T09:02:07.265Z,12.53
2023-03-22T09:05:03.029Z,12.97
2023-03-22T09:08:00.612Z,11.67
2023-03-22T09:11:00.118Z,13.40
2023-03-22T09:13:51.127Z,13.10
2023-03-22T09:16:40.708Z,15.97
2023-03-22T09:19:31.678Z,13.90
2023-03-22T09:22:25.987Z,13.63
2023-03-22T09:25:17.327Z,12.13
2023-03-22T09:28:09.937Z,13.17
2023-03-22T09:31:00.613Z,12.67
2023-03-22T09:33:48.228Z,12.90
2023-03-22T09:36:35.895Z,12.37
2023-03-22T09:39:21.788Z,11.57
2023-03-22T09:42:13.253Z,11.00
2023-03-22T09:45:06.556Z,10.23
2023-03-22T09:47:58.876Z,11.43
2023-03-22T09:50:52.896Z,11.50
2023-03-22T09:53:46.474Z,12.33
2023-03-22T09:56:35.002Z,11.63
2023-03-22T09:59:31.848Z,13.10
2023-03-22T10:02:50.286Z,13.93
2023-03-22T10:05:42.933Z,15.27
2023-03-22T10:08:50.316Z,14.40
2023-03-22T10:11:48.357Z,13.70
2023-03-22T10:14:44.834Z,12.80
2023-03-22T10:17:34.933Z,12.37
2023-03-22T10:20:41.893Z,13.57
2023-03-22T10:23:35.506Z,12.80
2023-03-22T10:26:33.411Z,12.73
2023-03-22T10:29:39.682Z,12.03
2023-03-22T10:32:42.751Z,13.90
2023-03-22T10:35:42.990Z,12.70
2023-03-22T10:38:30.889Z,11.57
2023-03-22T10:41:23.755Z,12.73
2023-03-22T10:44:21.212Z,14.03
2023-03-22T10:47:13.105Z,13.77
2023-03-22T10:50:07.424Z,11.80
2023-03-22T10:53:06.932Z,12.33
2023-03-22T10:56:00.708Z,13.07
2023-03-22T10:58:51.940Z,12.60
2023-03-22T11:01:48.506Z,11.90
2023-03-22T11:04:40.983Z,12.63
2023-03-22T11:07:39.823Z,10.83
2023-03-22T11:10:33.575Z,11.37
2023-03-22T11:13:27.794Z,12.80
2023-03-22T11:16:24.268Z,11.70
2023-03-22T11:19:09.732Z,11.50
2023-03-22T11:22:01.574Z,11.03
2023-03-22T11:24:51.952Z,9.90
2023-03-22T11:27:53.158Z,10.57
2023-03-22T11:30:48.165Z,10.03
2023-03-22T11:33:35.889Z,11.63
2023-03-22T11:36:27.884Z,13.70
2023-03-22T11:39:16.585Z,11.17
2023-03-22T11:42:13.645Z,11.77
2023-03-22T11:45:09.050Z,11.53
2023-03-22T11:48:00.904Z,11.07
2023-03-22T11:50:52.017Z,11.43
2023-03-22T11:53:46.569Z,11.27
2023-03-22T11:56:35.821Z,12.63
2023-03-22T11:59:31.443Z,12.77
2023-03-22T12:02:29.359Z,12.93
2023-03-22T12:05:23.211Z,14.30
2023-03-22T12:08:22.556Z,11.90
2023-03-22T12:11:15.991Z,12.80
2023-03-22T12:14:13.117Z,12.03
2023-03-22T12:17:07.136Z,13.60
2023-03-22T12:20:13.362Z,14.00
2023-03-22T12:22:59.532Z,14.43
2023-03-22T12:26:03.100Z,12.70
2023-03-22T12:29:02.472Z,12.70
2023-03-22T12:32:04.384Z,13.83
2023-03-22T12:35:09.124Z,13.83
2023-03-22T12:38:20.957Z,13.57
2023-03-22T12:41:17.909Z,14.77
2023-03-22T12:44:07.756Z,14.77
2023-03-22T12:47:02.619Z,14.07
2023-03-22T12:50:01.941Z,14.53
2023-03-22T12:52:58.869Z,15.07
2023-03-22T12:55:56.122Z,13.80
2023-03-22T12:58:40.497Z,15.33
2023-03-22T13:01:45.324Z,14.90
2023-03-22T13:04:52.863Z,14.17
2023-03-22T13:07:59.563Z,13.03
2023-03-22T13:11:24.778Z,13.30
2023-03-22T13:14:15.466Z,15.47
2023-03-22T13:17:06.691Z,14.00
2023-03-22T13:20:08.871Z,12.80
2023-03-22T13:23:14.369Z,11.97
2023-03-22T13:26:10.077Z,12.90
2023-03-22T13:29:19.818Z,12.87
2023-03-22T13:32:11.560Z,12.57
2023-03-22T13:34:57.497Z,12.33
2023-03-22T13:37:56.165Z,12.97
2023-03-22T13:40:59.697Z,12.73
2023-03-22T13:43:58.310Z,13.33
2023-03-22T13:47:12.210Z,12.93
2023-03-22T13:50:09.840Z,11.63
2023-03-22T13:53:02.953Z,12.30
2023-03-22T13:56:08.455Z,13.70
2023-03-22T13:59:01.702Z,14.10
2023-03-22T14:01:51.908Z,14.13
2023-03-22T14:04:47.418Z,15.23
2023-03-22T14:07:47.487Z,15.57
2023-03-22T14:10:52.011Z,15.53
2023-03-22T14:13:45.662Z,14.77
2023-03-22T14:16:42.929Z,15.87
2023-03-22T14:19:37.170Z,14.97
